Time;durP1;ratioP1;P1;durP2;ratioP2;P2;SDS_P1;SDS_P2;PMS_P1;PMS_P2;Temp;Humidity;BMP_temperature;BMP_pressure;BME280_temperature;BME280_humidity;BME280_pressure;Samples;Min_cycle;Max_cycle;Signal;HPM_P1;HPM_P2
2021/06/07 00:01:53;;;;;;;34.63;23.48;;;15.30;97.20;;;;;;5116157;28;20435;-80
2021/06/07 00:04:19;;;;;;;34.08;24.35;;;15.30;97.10;;;;;;5116020;28;20031;-81
2021/06/07 00:06:45;;;;;;;31.42;21.88;;;15.40;97.00;;;;;;5115788;28;20032;-81
2021/06/07 00:09:14;;;;;;;30.92;20.73;;;15.40;96.90;;;;;;5115710;28;20380;-81
2021/06/07 00:11:43;;;;;;;37.13;24.10;;;15.40;96.70;;;;;;5115791;28;20107;-81
2021/06/07 00:14:10;;;;;;;32.47;22.00;;;15.50;96.60;;;;;;5115771;28;20016;-81
2021/06/07 00:16:36;;;;;;;35.30;22.98;;;15.50;96.50;;;;;;5115817;28;20046;-81
2021/06/07 00:19:07;;;;;;;34.88;23.15;;;15.60;96.40;;;;;;5114817;28;20364;-80
2021/06/07 00:21:33;;;;;;;31.60;21.90;;;15.60;96.30;;;;;;5115737;28;20034;-82
2021/06/07 00:23:59;;;;;;;36.13;24.70;;;15.60;96.10;;;;;;5115447;28;20024;-81
2021/06/07 00:26:24;;;;;;;35.13;25.30;;;15.60;95.80;;;;;;5115378;28;20376;-80
2021/06/07 00:28:50;;;;;;;40.72;27.45;;;15.50;95.60;;;;;;5115373;28;20019;-81
2021/06/07 00:31:16;;;;;;;38.80;26.30;;;15.50;95.60;;;;;;5115622;28;20102;-80
2021/06/07 00:33:42;;;;;;;38.72;26.67;;;15.50;95.40;;;;;;5115423;28;20051;-81
2021/06/07 00:36:09;;;;;;;37.95;25.92;;;15.50;95.70;;;;;;5115665;28;20625;-81
2021/06/07 00:38:36;;;;;;;32.30;22.40;;;15.40;95.80;;;;;;5115504;28;20657;-80
2021/06/07 00:41:04;;;;;;;27.23;19.80;;;15.40;95.90;;;;;;5115014;28;20095;-80
2021/06/07 00:43:30;;;;;;;28.15;18.70;;;15.40;95.80;;;;;;5122961;28;20031;-81
2021/06/07 00:45:56;;;;;;;23.95;17.65;;;15.50;95.80;;;;;;5116604;28;20043;-81
2021/06/07 00:48:22;;;;;;;29.48;20.90;;;15.50;95.70;;;;;;5115180;28;20040;-80
2021/06/07 00:50:51;;;;;;;33.97;23.10;;;15.50;95.60;;;;;;5115304;28;20024;-80
2021/06/07 00:53:18;;;;;;;30.88;20.15;;;15.50;95.70;;;;;;5115131;28;20031;-80
2021/06/07 00:55:55;;;;;;;32.05;22.08;;;15.50;95.70;;;;;;5115077;28;20031;-80
2021/06/07 00:58:23;;;;;;;35.35;23.55;;;15.50;95.70;;;;;;5115275;27;20092;-80
2021/06/07 01:00:49;;;;;;;33.88;24.10;;;15.60;95.60;;;;;;5114907;27;20046;-79
2021/06/07 01:03:17;;;;;;;34.60;24.13;;;15.60;95.50;;;;;;5114963;28;20015;-81
2021/06/07 01:05:44;;;;;;;33.25;22.85;;;15.60;95.40;;;;;;5114779;28;20332;-81
2021/06/07 01:08:10;;;;;;;34.75;23.80;;;15.60;95.30;;;;;;5114717;27;20036;-81
2021/06/07 01:10:36;;;;;;;39.30;26.08;;;15.60;95.20;;;;;;5114808;28;20472;-81
2021/06/07 01:13:02;;;;;;;45.88;29.00;;;15.60;95.20;;;;;;5114643;28;20480;-81
2021/06/07 01:15:28;;;;;;;51.97;33.95;;;15.60;95.20;;;;;;5114518;28;20027;-81
2021/06/07 01:17:54;;;;;;;54.00;34.78;;;15.60;94.80;;;;;;5114520;28;20069;-81
2021/06/07 01:20:22;;;;;;;56.35;35.25;;;15.40;95.30;;;;;;5114382;28;20028;-81
2021/06/07 01:22:49;;;;;;;53.08;34.80;;;15.30;95.60;;;;;;5113018;28;20023;-80
2021/06/07 01:25:23;;;;;;;44.55;29.88;;;15.30;95.90;;;;;;5114349;28;20027;-80
2021/06/07 01:27:49;;;;;;;50.58;33.03;;;15.40;96.00;;;;;;5114168;28;20457;-81
2021/06/07 01:30:18;;;;;;;45.10;28.98;;;15.30;96.00;;;;;;5114373;28;20020;-80
2021/06/07 01:32:44;;;;;;;46.53;29.60;;;15.40;96.00;;;;;;5114175;28;20062;-81
2021/06/07 01:35:12;;;;;;;43.50;27.48;;;15.40;96.00;;;;;;5113718;28;20032;-81
2021/06/07 01:37:39;;;;;;;52.10;33.45;;;15.40;96.00;;;;;;5114042;28;20019;-81
2021/06/07 01:40:07;;;;;;;50.80;32.20;;;15.40;95.70;;;;;;5114242;28;20467;-80
2021/06/07 01:42:32;;;;;;;51.00;31.02;;;15.40;95.70;;;;;;5114088;28;20034;-81
2021/06/07 01:44:58;;;;;;;46.88;29.08;;;15.40;95.80;;;;;;5112627;28;20476;-80
2021/06/07 01:47:24;;;;;;;46.70;29.95;;;15.50;95.80;;;;;;5113738;28;20518;-80
2021/06/07 01:49:50;;;;;;;51.95;32.80;;;15.40;95.70;;;;;;5114008;28;20107;-81
2021/06/07 01:52:16;;;;;;;46.28;30.45;;;15.50;95.80;;;;;;5113372;28;20080;-80
2021/06/07 01:54:41;;;;;;;50.60;32.08;;;15.50;95.60;;;;;;5113755;27;20106;-81
2021/06/07 01:57:07;;;;;;;52.95;32.63;;;15.50;95.60;;;;;;5113799;28;20027;-79
2021/06/07 01:59:33;;;;;;;61.28;37.33;;;15.40;95.50;;;;;;5113774;28;20284;-80
2021/06/07 02:01:59;;;;;;;56.63;35.03;;;15.40;95.50;;;;;;5113822;28;20492;-80
2021/06/07 02:04:24;;;;;;;48.40;30.88;;;15.30;95.70;;;;;;5114343;28;20467;-81
2021/06/07 02:06:50;;;;;;;54.97;35.13;;;15.40;95.80;;;;;;5114492;28;20039;-81
2021/06/07 02:09:16;;;;;;;63.70;38.47;;;15.30;95.90;;;;;;5114870;28;20016;-81
2021/06/07 02:11:41;;;;;;;57.63;36.28;;;15.30;95.80;;;;;;5114846;28;20030;-81
2021/06/07 02:14:07;;;;;;;56.88;34.72;;;15.30;96.20;;;;;;5113547;28;20072;-81
2021/06/07 02:16:35;;;;;;;64.10;37.30;;;15.20;96.20;;;;;;5113469;28;20058;-80
2021/06/07 02:19:03;;;;;;;68.32;39.15;;;15.30;96.30;;;;;;5113460;28;20023;-81
2021/06/07 02:21:29;;;;;;;75.88;41.50;;;15.20;96.40;;;;;;5113400;28;20027;-80
2021/06/07 02:23:55;;;;;;;75.32;41.10;;;15.00;96.90;;;;;;5113295;28;20023;-80
2021/06/07 02:26:23;;;;;;;64.78;37.55;;;15.00;97.20;;;;;;5116032;28;20036;-82
2021/06/07 02:28:52;;;;;;;58.13;34.88;;;15.00;97.40;;;;;;5124292;28;20038;-82
2021/06/07 02:31:19;;;;;;;59.90;35.25;;;15.00;97.40;;;;;;5132284;28;20019;-82
2021/06/07 02:33:46;;;;;;;55.42;33.63;;;15.00;97.30;;;;;;5118712;28;20027;-83
2021/06/07 02:36:12;;;;;;;47.67;31.00;;;15.10;97.30;;;;;;5112564;28;20020;-82
2021/06/07 02:38:38;;;;;;;48.42;30.08;;;15.00;97.30;;;;;;5113211;28;20027;-80
2021/06/07 02:41:03;;;;;;;44.60;27.30;;;15.00;97.70;;;;;;5113186;28;20422;-82
2021/06/07 02:43:29;;;;;;;44.03;26.55;;;14.90;97.90;;;;;;5113159;28;20057;-82
2021/06/07 02:45:55;;;;;;;42.58;26.58;;;15.00;97.90;;;;;;5111572;28;20056;-82
2021/06/07 02:48:20;;;;;;;33.85;21.42;;;14.90;97.90;;;;;;5112163;28;20079;-81
2021/06/07 02:50:48;;;;;;;34.63;21.40;;;15.00;97.90;;;;;;5114490;28;20051;-83
2021/06/07 02:53:14;;;;;;;27.23;18.67;;;15.00;97.70;;;;;;5115594;28;20548;-82
2021/06/07 02:55:47;;;;;;;27.33;17.27;;;15.00;97.70;;;;;;5115351;28;20383;-82
2021/06/07 02:58:13;;;;;;;25.10;16.33;;;15.10;97.70;;;;;;5114281;28;20128;-82
2021/06/07 03:00:44;;;;;;;26.75;17.67;;;15.10;97.60;;;;;;5113972;28;20020;-82
2021/06/07 03:03:11;;;;;;;27.48;18.23;;;15.10;97.50;;;;;;5115305;28;20172;-82
2021/06/07 03:05:38;;;;;;;23.75;16.55;;;15.00;97.50;;;;;;5117786;28;20019;-82
2021/06/07 03:08:08;;;;;;;25.77;17.05;;;15.00;97.70;;;;;;5117686;28;20036;-81
2021/06/07 03:10:33;;;;;;;23.92;16.75;;;14.90;97.80;;;;;;5116426;28;20496;-82
2021/06/07 03:12:59;;;;;;;26.50;17.40;;;14.90;97.90;;;;;;5116281;28;20036;-81
2021/06/07 03:15:25;;;;;;;20.50;13.30;;;14.90;98.20;;;;;;5117654;28;20139;-83
2021/06/07 03:17:52;;;;;;;28.23;17.90;;;15.00;98.30;;;;;;5117461;28;20024;-82
2021/06/07 03:20:21;;;;;;;26.20;17.40;;;15.00;97.90;;;;;;5117555;28;20512;-81
2021/06/07 03:22:47;;;;;;;30.95;18.77;;;14.90;97.80;;;;;;5129631;28;20049;-81
2021/06/07 03:25:13;;;;;;;27.67;18.15;;;14.90;98.00;;;;;;5124354;28;20142;-81
2021/06/07 03:27:40;;;;;;;26.00;17.05;;;14.90;98.20;;;;;;5118108;28;20042;-81
2021/06/07 03:30:09;;;;;;;26.35;17.13;;;14.90;98.20;;;;;;5122010;28;20100;-81
2021/06/07 03:32:34;;;;;;;24.20;16.65;;;14.90;98.00;;;;;;5128767;28;20081;-81
2021/06/07 03:35:00;;;;;;;24.75;17.42;;;14.90;97.90;;;;;;5127774;28;20028;-80
2021/06/07 03:37:26;;;;;;;24.10;16.33;;;14.90;97.90;;;;;;5127651;28;20034;-81
2021/06/07 03:39:52;;;;;;;21.90;15.02;;;15.00;97.80;;;;;;5127249;28;20034;-81
2021/06/07 03:42:18;;;;;;;24.65;15.90;;;14.90;97.80;;;;;;5126891;27;20031;-82
2021/06/07 03:44:43;;;;;;;25.42;16.83;;;15.00;97.80;;;;;;5127595;28;20024;-81
2021/06/07 03:47:09;;;;;;;19.23;13.38;;;15.00;97.70;;;;;;5123542;28;20059;-81
2021/06/07 03:49:34;;;;;;;20.63;13.38;;;15.00;97.80;;;;;;5116422;27;20019;-81
2021/06/07 03:52:00;;;;;;;15.05;11.07;;;15.10;97.80;;;;;;5116271;28;20020;-81
2021/06/07 03:54:26;;;;;;;18.48;11.90;;;15.10;97.70;;;;;;5116153;28;20034;-81
2021/06/07 03:56:51;;;;;;;16.17;11.52;;;15.10;97.50;;;;;;5116064;28;20034;-80
2021/06/07 03:59:17;;;;;;;16.95;12.07;;;15.20;97.50;;;;;;5116230;28;20386;-82
2021/06/07 04:01:43;;;;;;;17.75;12.10;;;15.20;97.30;;;;;;5115999;28;20528;-81
2021/06/07 04:04:08;;;;;;;14.32;10.00;;;15.20;97.20;;;;;;5115992;28;20019;-78
2021/06/07 04:06:34;;;;;;;22.08;12.48;;;15.30;97.20;;;;;;5116145;28;20103;-78
2021/06/07 04:09:02;;;;;;;16.88;11.75;;;15.30;96.70;;;;;;5116043;28;20032;-78
2021/06/07 04:11:28;;;;;;;16.27;12.60;;;15.10;96.50;;;;;;5115821;28;20016;-78
2021/06/07 04:13:55;;;;;;;16.98;11.90;;;15.10;96.90;;;;;;5115198;28;20157;-78
2021/06/07 04:16:21;;;;;;;16.05;12.15;;;15.10;97.00;;;;;;5115735;28;20016;-78
2021/06/07 04:18:46;;;;;;;18.73;12.90;;;15.10;97.20;;;;;;5115881;28;20027;-77
2021/06/07 04:21:12;;;;;;;15.40;10.00;;;15.00;97.10;;;;;;5115515;28;20039;-78
2021/06/07 04:23:38;;;;;;;15.18;10.07;;;15.00;97.10;;;;;;5113929;28;20038;-78
2021/06/07 04:26:04;;;;;;;22.38;13.98;;;15.10;97.20;;;;;;5115405;28;20019;-77
2021/06/07 04:28:33;;;;;;;21.15;12.05;;;15.00;97.10;;;;;;5115602;28;20028;-77
2021/06/07 04:30:59;;;;;;;21.05;12.85;;;15.10;98.10;;;;;;5115361;28;20028;-77
2021/06/07 04:33:24;;;;;;;23.48;14.85;;;15.10;97.20;;;;;;5115480;28;20088;-77
2021/06/07 04:35:50;;;;;;;22.67;14.70;;;15.10;97.10;;;;;;5115353;28;20058;-78
2021/06/07 04:38:15;;;;;;;26.27;15.88;;;15.20;97.00;;;;;;5114080;28;20042;-77
2021/06/07 04:40:43;;;;;;;24.05;16.58;;;15.10;96.70;;;;;;5115265;28;20417;-77
2021/06/07 04:43:12;;;;;;;32.05;19.77;;;15.10;96.60;;;;;;5115404;28;20032;-78
2021/06/07 04:45:41;;;;;;;32.90;18.77;;;15.10;96.50;;;;;;5115535;28;20044;-77
2021/06/07 04:48:07;;;;;;;37.85;22.48;;;15.00;96.80;;;;;;5115438;28;20387;-77
2021/06/07 04:50:33;;;;;;;46.28;25.67;;;15.00;96.90;;;;;;5115590;28;20026;-76
2021/06/07 04:53:00;;;;;;;41.17;23.13;;;14.90;97.30;;;;;;5123444;28;20028;-79
2021/06/07 04:55:36;;;;;;;45.13;25.27;;;14.90;97.50;;;;;;5130377;27;20392;-80
2021/06/07 04:58:07;;;;;;;49.00;27.35;;;14.90;97.70;;;;;;5116446;28;20098;-81
2021/06/07 05:00:34;;;;;;;44.95;26.20;;;14.80;97.80;;;;;;5114469;28;20057;-78
2021/06/07 05:03:00;;;;;;;43.00;25.10;;;14.80;97.90;;;;;;5115430;28;20020;-78
2021/06/07 05:05:26;;;;;;;49.80;26.73;;;14.70;98.10;;;;;;5113917;28;20400;-81
2021/06/07 05:07:52;;;;;;;52.45;28.75;;;14.70;98.20;;;;;;5113540;28;20030;-79
2021/06/07 05:10:18;;;;;;;54.15;28.67;;;14.70;98.40;;;;;;5115329;27;20025;-81
2021/06/07 05:12:44;;;;;;;49.40;26.40;;;14.70;98.50;;;;;;5115054;28;20163;-81
2021/06/07 05:15:11;;;;;;;49.60;27.13;;;14.80;98.50;;;;;;5113823;28;20438;-78
2021/06/07 05:17:37;;;;;;;49.25;26.67;;;14.70;98.50;;;;;;5115040;28;20490;-79
2021/06/07 05:20:07;;;;;;;50.15;27.30;;;14.70;98.60;;;;;;5114750;28;20023;-80
2021/06/07 05:22:33;;;;;;;42.40;24.48;;;14.80;98.70;;;;;;5114750;28;20499;-79
2021/06/07 05:24:59;;;;;;;36.92;21.58;;;14.80;98.50;;;;;;5114778;28;20031;-81
2021/06/07 05:27:25;;;;;;;41.25;23.58;;;14.80;98.40;;;;;;5113580;28;20036;-80
2021/06/07 05:29:50;;;;;;;40.30;24.08;;;14.80;98.30;;;;;;5112871;28;20020;-81
2021/06/07 05:32:16;;;;;;;40.25;23.13;;;14.80;98.40;;;;;;5114442;28;20153;-82
2021/06/07 05:34:41;;;;;;;36.13;20.35;;;14.80;98.40;;;;;;5114594;28;20027;-81
2021/06/07 05:37:07;;;;;;;30.60;19.35;;;14.90;98.40;;;;;;5114372;28;20038;-82
2021/06/07 05:39:32;;;;;;;32.03;18.65;;;14.90;98.30;;;;;;5113106;28;20572;-81
2021/06/07 05:41:58;;;;;;;36.25;21.13;;;14.90;98.20;;;;;;5114448;28;20055;-81
2021/06/07 05:44:24;;;;;;;35.95;21.55;;;15.00;97.90;;;;;;5114216;28;20023;-83
2021/06/07 05:46:51;;;;;;;35.17;20.65;;;14.90;97.60;;;;;;5113981;28;20056;-83
2021/06/07 05:49:17;;;;;;;34.92;21.60;;;14.90;97.60;;;;;;5114546;28;20024;-85
2021/06/07 05:51:43;;;;;;;36.25;21.38;;;14.90;97.80;;;;;;5114230;28;20038;-84
2021/06/07 05:54:09;;;;;;;36.67;22.02;;;14.90;97.70;;;;;;5114303;28;20464;-83
2021/06/07 05:56:37;;;;;;;33.35;19.67;;;14.90;97.80;;;;;;5114385;28;20444;-81
2021/06/07 05:59:07;;;;;;;28.58;17.65;;;15.00;97.80;;;;;;5113968;28;20088;-82
2021/06/07 06:01:33;;;;;;;28.98;16.92;;;15.00;97.60;;;;;;5113749;28;20020;-78
2021/06/07 06:03:59;;;;;;;29.08;17.88;;;15.00;97.80;;;;;;5113908;28;20024;-84
2021/06/07 06:06:25;;;;;;;22.55;15.38;;;15.00;97.40;;;;;;5114216;28;20401;-83
2021/06/07 06:08:52;;;;;;;22.65;15.25;;;15.00;97.20;;;;;;5112798;28;20028;-83
2021/06/07 06:11:19;;;;;;;24.23;15.00;;;15.00;97.30;;;;;;5114037;28;20512;-81
2021/06/07 06:13:46;;;;;;;22.75;14.50;;;15.00;97.30;;;;;;5113936;28;20027;-83
2021/06/07 06:16:11;;;;;;;18.35;12.43;;;15.10;97.20;;;;;;5114013;28;20028;-82
2021/06/07 06:18:38;;;;;;;23.35;14.10;;;15.10;97.30;;;;;;5113838;28;20019;-82
2021/06/07 06:21:05;;;;;;;24.77;15.43;;;15.10;96.90;;;;;;5113825;28;20022;-82
2021/06/07 06:23:30;;;;;;;25.70;15.40;;;15.10;97.20;;;;;;5113731;28;20046;-82
2021/06/07 06:25:56;;;;;;;23.45;14.80;;;15.20;97.30;;;;;;5113518;28;20472;-81
2021/06/07 06:28:22;;;;;;;27.80;15.70;;;15.20;97.10;;;;;;5113630;28;20023;-80
2021/06/07 06:30:48;;;;;;;19.23;12.32;;;15.30;96.80;;;;;;5113202;28;20046;-80
2021/06/07 06:33:13;;;;;;;19.65;12.65;;;15.20;96.80;;;;;;5113445;28;20050;-81
2021/06/07 06:35:39;;;;;;;23.33;14.63;;;15.30;96.60;;;;;;5113400;28;20019;-79
2021/06/07 06:38:05;;;;;;;24.25;14.48;;;15.30;96.60;;;;;;5111855;28;20051;-80
2021/06/07 06:40:33;;;;;;;24.48;14.30;;;15.30;96.60;;;;;;5115024;28;20517;-82
2021/06/07 06:43:00;;;;;;;24.38;15.02;;;15.40;96.70;;;;;;5118888;28;20028;-78
2021/06/07 06:45:27;;;;;;;20.88;12.93;;;15.40;96.50;;;;;;5119019;28;20107;-82
2021/06/07 06:47:57;;;;;;;18.70;11.38;;;15.50;96.50;;;;;;5122412;28;20047;-80
2021/06/07 06:50:32;;;;;;;17.42;10.65;;;15.50;96.00;;;;;;5125715;28;20020;-77
2021/06/07 06:52:58;;;;;;;18.52;11.38;;;15.60;95.80;;;;;;5127041;28;20062;-80
2021/06/07 06:55:24;;;;;;;19.52;11.75;;;15.60;95.20;;;;;;5129044;28;20015;-82
2021/06/07 06:57:50;;;;;;;17.27;10.18;;;15.70;95.10;;;;;;5117696;28;20059;-84
2021/06/07 07:00:17;;;;;;;17.17;10.82;;;15.70;95.70;;;;;;5112238;28;20023;-82
2021/06/07 07:02:42;;;;;;;15.90;10.10;;;15.60;94.30;;;;;;5113537;28;20028;-82
2021/06/07 07:05:09;;;;;;;13.40;8.77;;;15.60;94.50;;;;;;5113223;27;20108;-81
2021/06/07 07:07:34;;;;;;;13.80;9.52;;;15.60;94.60;;;;;;5112891;28;20189;-82
2021/06/07 07:10:00;;;;;;;13.30;9.00;;;15.60;94.50;;;;;;5113121;28;20490;-81
2021/06/07 07:12:26;;;;;;;12.98;8.43;;;15.60;94.50;;;;;;5113304;28;20019;-77
2021/06/07 07:14:54;;;;;;;12.52;8.07;;;15.60;94.50;;;;;;5111041;28;20476;-83
2021/06/07 07:17:19;;;;;;;10.20;6.43;;;15.60;94.20;;;;;;5112671;28;20069;-80
2021/06/07 07:19:46;;;;;;;11.43;7.63;;;15.60;94.40;;;;;;5112847;28;20426;-81
2021/06/07 07:22:14;;;;;;;11.35;8.27;;;15.60;94.50;;;;;;5113047;28;20027;-84
2021/06/07 07:24:47;;;;;;;13.38;7.63;;;15.60;94.30;;;;;;5112876;28;20092;-79
2021/06/07 07:27:16;;;;;;;30.35;9.38;;;15.50;95.10;;;;;;5116288;28;20035;-83
2021/06/07 07:29:42;;;;;;;14.77;7.85;;;15.80;96.50;;;;;;5123945;28;20073;-84
2021/06/07 07:32:09;;;;;;;12.45;6.85;;;16.00;94.60;;;;;;5133189;28;20024;-83
2021/06/07 07:34:35;;;;;;;13.35;6.85;;;16.30;94.10;;;;;;5121242;28;20091;-78
2021/06/07 07:37:02;;;;;;;10.25;6.60;;;16.40;93.00;;;;;;5110700;28;20188;-81
2021/06/07 07:39:28;;;;;;;9.13;6.25;;;16.50;92.20;;;;;;5112201;28;20035;-82
2021/06/07 07:41:54;;;;;;;8.13;5.63;;;16.60;91.40;;;;;;5110162;28;20053;-79
2021/06/07 07:44:20;;;;;;;10.20;6.50;;;16.70;91.00;;;;;;5112960;28;20019;-80
2021/06/07 07:46:46;;;;;;;9.75;6.70;;;16.70;90.50;;;;;;5111495;28;20176;-81
2021/06/07 07:49:12;;;;;;;8.63;5.88;;;16.70;90.80;;;;;;5113394;28;20027;-79
2021/06/07 07:51:42;;;;;;;6.18;4.70;;;16.80;90.50;;;;;;5116610;28;20027;-80
2021/06/07 07:54:09;;;;;;;7.25;5.43;;;16.90;90.00;;;;;;5116641;28;20094;-82
2021/06/07 07:56:36;;;;;;;9.88;6.60;;;17.00;89.50;;;;;;5115421;28;20026;-82
2021/06/07 07:59:02;;;;;;;8.55;6.43;;;17.00;89.00;;;;;;5116549;28;20027;-83
2021/06/07 08:01:28;;;;;;;7.75;5.90;;;17.00;88.50;;;;;;5116134;28;20506;-80
2021/06/07 08:03:53;;;;;;;10.05;5.53;;;17.10;88.80;;;;;;5116646;28;20035;-81
2021/06/07 08:06:19;;;;;;;7.97;5.32;;;17.20;88.20;;;;;;5116319;28;20097;-81
2021/06/07 08:08:45;;;;;;;8.40;6.03;;;17.30;87.80;;;;;;5116224;28;20099;-80
2021/06/07 08:11:13;;;;;;;8.73;5.75;;;17.40;87.10;;;;;;5115034;28;20047;-81
2021/06/07 08:13:40;;;;;;;7.75;5.72;;;17.50;87.40;;;;;;5114928;28;20049;-81
2021/06/07 08:16:06;;;;;;;9.85;6.68;;;17.50;86.40;;;;;;5114847;28;20027;-82
2021/06/07 08:18:32;;;;;;;5.78;4.47;;;17.50;86.10;;;;;;5117961;28;20023;-81
2021/06/07 08:20:57;;;;;;;7.80;5.50;;;17.60;86.20;;;;;;5114839;28;20088;-80
2021/06/07 08:23:23;;;;;;;6.18;4.82;;;17.60;85.40;;;;;;5115800;28;20024;-79
2021/06/07 08:25:49;;;;;;;7.57;5.70;;;17.70;85.20;;;;;;5119691;28;20030;-79
2021/06/07 08:28:15;;;;;;;7.40;5.03;;;17.60;85.00;;;;;;5120866;28;20040;-79
2021/06/07 08:30:40;;;;;;;7.32;5.75;;;17.60;85.20;;;;;;5118374;28;20073;-80
2021/06/07 08:33:06;;;;;;;7.78;6.25;;;17.60;85.30;;;;;;5116115;28;20102;-80
2021/06/07 08:35:32;;;;;;;7.38;5.55;;;17.50;85.20;;;;;;5115330;28;20019;-81
2021/06/07 08:37:58;;;;;;;7.10;5.00;;;17.40;85.70;;;;;;5116492;28;20015;-80
2021/06/07 08:40:23;;;;;;;8.57;6.03;;;17.50;85.90;;;;;;5116297;28;20027;-80
2021/06/07 08:42:49;;;;;;;7.13;5.22;;;17.50;85.60;;;;;;5116285;28;20484;-81
2021/06/07 08:45:18;;;;;;;6.97;5.10;;;17.50;85.60;;;;;;5115592;28;20058;-78
2021/06/07 08:47:44;;;;;;;7.38;5.38;;;17.50;85.30;;;;;;5114396;28;20063;-81
2021/06/07 08:50:12;;;;;;;8.27;5.88;;;17.50;85.50;;;;;;5117088;28;20023;-83
2021/06/07 08:52:42;;;;;;;9.02;5.60;;;17.50;85.50;;;;;;5115763;28;20020;-78
2021/06/07 08:55:09;;;;;;;7.03;5.15;;;17.60;85.60;;;;;;5120421;28;20019;-87
2021/06/07 08:57:44;;;;;;;6.68;5.22;;;17.60;85.30;;;;;;5126256;28;20069;-81
2021/06/07 09:00:13;;;;;;;7.53;5.80;;;17.60;85.20;;;;;;5126662;28;20034;-86
2021/06/07 09:02:40;;;;;;;7.57;5.13;;;17.60;85.30;;;;;;5120600;28;20078;-87
2021/06/07 09:05:07;;;;;;;5.63;4.70;;;17.70;85.60;;;;;;5117465;28;20031;-79
2021/06/07 09:07:34;;;;;;;5.63;4.10;;;17.70;85.50;;;;;;5118676;28;20031;-80
2021/06/07 09:10:12;;;;;;;6.50;5.00;;;17.80;85.00;;;;;;5116947;28;20016;-80
2021/06/07 09:12:41;;;;;;;6.60;5.03;;;17.90;84.60;;;;;;5115536;28;20023;-78
2021/06/07 09:15:13;;;;;;;6.75;3.97;;;17.90;84.00;;;;;;5115415;28;20023;-80
2021/06/07 09:17:45;;;;;;;4.85;3.80;;;18.00;83.90;;;;;;5115393;28;20555;-78
2021/06/07 09:20:14;;;;;;;2.90;2.60;;;18.00;83.50;;;;;;5114858;28;20468;-78
2021/06/07 09:22:52;;;;;;;4.10;3.15;;;18.10;83.00;;;;;;5114954;28;20046;-77
2021/06/07 09:25:19;;;;;;;3.90;2.92;;;18.30;82.70;;;;;;5114973;28;20495;-78
2021/06/07 09:28:12;;;;;;;4.57;2.55;;;18.50;81.90;;;;;;5114611;28;20088;-79
2021/06/07 09:30:59;;;;;;;4.40;3.72;;;18.50;81.80;;;;;;5114157;28;20020;-78
2021/06/07 09:33:34;;;;;;;4.40;2.97;;;18.50;81.50;;;;;;5114762;28;20040;-80
2021/06/07 09:36:28;;;;;;;4.68;3.13;;;18.50;81.50;;;;;;5114727;28;20080;-78
2021/06/07 09:39:08;;;;;;;3.22;2.30;;;18.40;81.90;;;;;;5114399;28;20035;-78
2021/06/07 09:41:54;;;;;;;4.50;2.55;;;18.40;82.00;;;;;;5120533;28;20024;-79
2021/06/07 09:44:22;;;;;;;5.65;3.70;;;18.50;81.80;;;;;;5117019;28;20024;-78
2021/06/07 09:46:49;;;;;;;4.85;3.63;;;18.50;82.10;;;;;;5114589;28;20394;-79
2021/06/07 09:49:18;;;;;;;4.40;2.65;;;18.50;82.30;;;;;;5114279;28;20020;-80
2021/06/07 09:51:59;;;;;;;3.47;2.67;;;18.50;81.90;;;;;;5114129;28;20098;-78
2021/06/07 09:54:27;;;;;;;2.70;2.13;;;18.50;82.10;;;;;;5114381;28;20384;-81
2021/06/07 09:56:54;;;;;;;2.45;1.95;;;18.50;81.80;;;;;;5114153;28;20498;-78
2021/06/07 09:59:24;;;;;;;2.90;2.38;;;18.50;81.60;;;;;;5112818;28;20027;-77
2021/06/07 10:01:50;;;;;;;5.03;2.70;;;18.50;81.80;;;;;;5113233;28;20055;-79
2021/06/07 10:04:15;;;;;;;2.42;2.20;;;18.50;81.70;;;;;;5112786;28;20102;-77
2021/06/07 10:06:42;;;;;;;3.38;2.33;;;18.50;81.60;;;;;;5113321;28;20529;-83
2021/06/07 10:09:08;;;;;;;2.40;2.13;;;18.50;81.80;;;;;;5112519;28;20047;-78
2021/06/07 10:11:42;;;;;;;2.60;2.25;;;18.50;81.90;;;;;;5112716;28;20022;-79
2021/06/07 10:14:20;;;;;;;5.38;3.05;;;18.50;81.80;;;;;;5112020;28;20033;-80
2021/06/07 10:16:56;;;;;;;4.53;3.25;;;18.60;81.60;;;;;;5111429;28;20020;-87
2021/06/07 10:19:32;;;;;;;3.95;2.60;;;18.60;81.00;;;;;;5110737;28;20035;-79
2021/06/07 10:21:58;;;;;;;2.95;2.47;;;18.70;80.80;;;;;;5110724;28;20012;-87
2021/06/07 10:24:24;;;;;;;3.10;2.80;;;18.80;80.40;;;;;;5112881;28;20076;-88
2021/06/07 10:26:49;;;;;;;4.50;2.80;;;18.80;80.10;;;;;;5114205;28;20027;-83
2021/06/07 10:29:15;;;;;;;4.20;3.53;;;18.90;80.00;;;;;;5113604;28;20047;-79
2021/06/07 10:31:41;;;;;;;4.03;3.40;;;19.00;80.40;;;;;;5113079;28;20424;-81
2021/06/07 10:34:09;;;;;;;5.95;3.17;;;19.20;79.20;;;;;;5114925;28;20031;-80
2021/06/07 10:36:47;;;;;;;4.65;3.30;;;19.20;78.80;;;;;;5115871;28;20023;-83
2021/06/07 10:39:19;;;;;;;3.95;3.38;;;19.20;78.70;;;;;;5125021;28;20068;-91
2021/06/07 10:41:47;;;;;;;3.55;2.92;;;19.20;78.40;;;;;;5116478;28;20026;-90
2021/06/07 10:44:13;;;;;;;3.50;2.72;;;19.10;78.70;;;;;;5114797;28;20092;-91
2021/06/07 10:46:42;;;;;;;3.28;2.90;;;19.10;78.80;;;;;;5115269;28;20043;-91
2021/06/07 10:49:34;;;;;;;4.93;2.88;;;19.20;78.80;;;;;;5115803;28;20119;-86
2021/06/07 10:52:11;;;;;;;4.78;3.97;;;19.20;79.00;;;;;;5115167;28;20077;-92
2021/06/07 10:54:39;;;;;;;6.30;3.90;;;19.20;79.10;;;;;;5115046;28;20068;-93
2021/06/07 10:57:37;;;;;;;4.68;3.38;;;19.20;79.20;;;;;;5114794;28;20102;-79
2021/06/07 11:00:06;;;;;;;4.15;3.33;;;19.20;79.60;;;;;;5112958;28;20490;-79
2021/06/07 11:02:35;;;;;;;5.32;3.90;;;19.30;79.80;;;;;;5113227;28;20027;-80
2021/06/07 11:05:07;;;;;;;3.95;3.55;;;19.20;79.60;;;;;;5113254;28;20031;-81
2021/06/07 11:07:34;;;;;;;4.03;3.63;;;19.20;79.40;;;;;;5114072;28;20080;-79
2021/06/07 11:10:17;;;;;;;8.65;6.25;;;19.10;79.30;;;;;;5112608;28;20020;-79
2021/06/07 11:12:44;;;;;;;8.10;5.93;;;18.90;80.30;;;;;;5112863;28;20503;-79
2021/06/07 11:15:24;;;;;;;10.10;6.45;;;18.70;81.60;;;;;;5112745;28;20484;-79
2021/06/07 11:17:51;;;;;;;10.02;6.57;;;18.50;83.10;;;;;;5112672;28;20043;-78
2021/06/07 11:20:35;;;;;;;8.88;7.13;;;18.40;83.40;;;;;;5112899;28;20016;-80
2021/06/07 11:23:10;;;;;;;10.95;8.10;;;18.40;83.70;;;;;;5111534;28;20028;-78
2021/06/07 11:25:44;;;;;;;13.55;8.38;;;18.30;84.10;;;;;;5117398;28;20135;-80
2021/06/07 11:28:44;;;;;;;9.98;7.28;;;18.20;84.60;;;;;;5117023;28;20034;-80
2021/06/07 11:31:18;;;;;;;10.23;6.72;;;18.20;84.60;;;;;;5094243;28;20115;-81
2021/06/07 11:33:56;;;;;;;9.25;7.22;;;18.40;84.70;;;;;;5117003;28;20053;-80
2021/06/07 11:36:44;;;;;;;12.93;8.40;;;18.50;84.70;;;;;;5116979;28;20059;-80
2021/06/07 11:39:14;;;;;;;9.80;7.97;;;18.70;84.10;;;;;;5116456;28;20023;-80
2021/06/07 11:41:41;;;;;;;10.65;7.97;;;18.70;83.90;;;;;;5116584;27;20028;-81
2021/06/07 11:44:07;;;;;;;9.45;6.65;;;18.80;83.70;;;;;;5117065;28;20487;-80
2021/06/07 11:46:33;;;;;;;10.07;7.68;;;18.80;83.40;;;;;;5119418;28;20047;-78
2021/06/07 11:49:07;;;;;;;9.23;7.60;;;18.80;83.50;;;;;;5117360;28;20024;-80
2021/06/07 11:51:35;;;;;;;9.70;7.85;;;18.70;83.40;;;;;;5117336;28;20084;-81
2021/06/07 11:54:26;;;;;;;11.02;9.20;;;18.70;83.40;;;;;;5116802;28;20027;-81
2021/06/07 11:57:19;;;;;;;8.85;7.63;;;18.60;83.10;;;;;;5116728;28;20375;-80
2021/06/07 11:59:51;;;;;;;10.65;8.80;;;18.60;83.60;;;;;;5114915;28;20043;-81
2021/06/07 12:02:19;;;;;;;8.00;6.75;;;18.80;83.90;;;;;;5116580;28;20026;-80
2021/06/07 12:04:45;;;;;;;9.52;7.40;;;18.80;83.70;;;;;;5116253;28;20159;-81
2021/06/07 12:07:12;;;;;;;7.05;6.35;;;19.00;83.40;;;;;;5116206;28;20055;-80
2021/06/07 12:09:41;;;;;;;8.23;7.35;;;19.20;83.00;;;;;;5116436;28;20024;-80
2021/06/07 12:12:08;;;;;;;9.05;7.57;;;19.30;82.00;;;;;;5116290;28;20110;-81
2021/06/07 12:14:36;;;;;;;8.80;6.80;;;19.20;80.80;;;;;;5115086;28;20127;-80
2021/06/07 12:17:15;;;;;;;8.20;6.88;;;19.20;81.30;;;;;;5116301;28;20038;-80
2021/06/07 12:19:42;;;;;;;7.53;6.55;;;19.30;81.50;;;;;;5116126;28;20020;-80
2021/06/07 12:22:44;;;;;;;11.20;9.23;;;19.30;81.30;;;;;;5116400;28;20020;-81
2021/06/07 12:30:45;;;;;;;12.45;9.10;;;19.00;82.30;;;;;;5128813;28;20034;-80
2021/06/07 12:33:11;;;;;;;9.90;8.48;;;19.00;82.20;;;;;;5129748;28;20027;-80
2021/06/07 12:35:38;;;;;;;10.70;8.18;;;19.10;82.10;;;;;;5129800;28;20016;-81
2021/06/07 12:38:09;;;;;;;11.65;10.15;;;19.00;82.00;;;;;;5116699;28;20086;-80
2021/06/07 12:40:40;;;;;;;11.50;9.18;;;18.90;82.20;;;;;;5116377;28;20024;-81
2021/06/07 12:43:05;;;;;;;12.07;8.38;;;18.90;82.40;;;;;;5115966;28;20035;-82
2021/06/07 12:45:33;;;;;;;10.63;8.82;;;18.90;82.60;;;;;;5115218;28;20103;-78
2021/06/07 12:48:16;;;;;;;11.57;9.23;;;18.90;82.80;;;;;;5115272;28;20040;-81